Time;durP1;ratioP1;P1;durP2;ratioP2;P2;SDS_P1;SDS_P2;PMS_P1;PMS_P2;Temp;Humidity;BMP_temperature;BMP_pressure;BME280_temperature;BME280_humidity;BME280_pressure;Samples;Min_cycle;Max_cycle;Signal;HPM_P1;HPM_P2
2021/04/21 00:05:33;;;;;;;78.83;42.57;;;;;;;6.36;65.00;99109.45;482538;1174;117509;-53
2021/04/21 00:15:38;;;;;;;80.93;44.00;;;;;;;6.01;65.91;99089.52;483287;1174;116643;-52
2021/04/21 00:25:42;;;;;;;67.83;36.67;;;;;;;5.72;66.56;99084.92;483327;1174;116570;-52
2021/04/21 00:35:47;;;;;;;66.40;37.70;;;;;;;5.44;66.73;99086.36;482572;1174;116939;-52
2021/04/21 00:45:57;;;;;;;64.30;34.30;;;;;;;5.30;67.00;99091.41;483312;1174;115727;-50
2021/04/21 00:56:07;;;;;;;57.90;32.50;;;;;;;5.24;67.37;99089.95;483260;1175;117430;-54
2021/04/21 01:06:13;;;;;;;47.47;32.10;;;;;;;5.13;67.53;99089.64;482605;1174;116398;-54
2021/04/21 01:16:20;;;;;;;43.80;27.90;;;;;;;4.99;67.26;99085.96;483267;1174;116902;-52
2021/04/21 01:26:44;;;;;;;39.90;29.05;;;;;;;4.85;68.72;99078.86;482588;1173;116910;-50
2021/04/21 01:36:50;;;;;;;36.40;29.30;;;;;;;4.71;69.46;99081.26;483197;1174;116127;-49
2021/04/21 01:47:03;;;;;;;39.90;29.93;;;;;;;4.54;69.56;99063.86;483239;1173;116799;-51
2021/04/21 01:57:17;;;;;;;40.50;29.53;;;;;;;4.48;70.60;99062.39;482581;1175;116633;-50
2021/04/21 02:07:39;;;;;;;40.57;29.03;;;;;;;4.45;70.71;99065.15;483335;1174;116562;-53
2021/04/21 02:17:50;;;;;;;38.60;33.10;;;;;;;4.45;71.17;99053.00;482572;1174;119371;-53
2021/04/21 02:28:04;;;;;;;39.30;31.57;;;;;;;4.56;71.56;99055.08;483269;1174;116917;-52
2021/04/21 02:38:18;;;;;;;39.47;30.50;;;;;;;4.66;71.88;99050.27;481574;1174;117065;-53
2021/04/21 02:48:34;;;;;;;45.17;32.00;;;;;;;4.80;72.07;99041.80;482547;1174;116742;-54
2021/04/21 02:58:44;;;;;;;40.40;29.05;;;;;;;4.96;72.30;99038.43;483264;1174;117881;-55
2021/04/21 03:08:53;;;;;;;36.10;28.13;;;;;;;5.15;72.01;99025.36;482676;1174;116278;-55
2021/04/21 03:19:00;;;;;;;40.10;28.27;;;;;;;5.33;71.99;99037.42;483271;1174;116318;-55
2021/04/21 03:29:07;;;;;;;30.20;23.97;;;;;;;5.40;72.03;99026.70;483239;1174;116591;-49
2021/04/21 03:39:12;;;;;;;31.55;24.20;;;;;;;5.47;72.46;99033.26;482603;1174;116320;-53
2021/04/21 03:49:16;;;;;;;30.93;24.17;;;;;;;5.57;71.62;99031.86;483262;1174;116902;-51
2021/04/21 03:59:22;;;;;;;31.90;23.85;;;;;;;5.80;72.04;99032.41;483060;1174;116632;-49
2021/04/21 04:09:29;;;;;;;26.05;21.80;;;;;;;6.08;72.05;99035.33;467356;1174;117986;-48
2021/04/21 04:19:35;;;;;;;26.10;21.63;;;;;;;6.37;71.73;99036.33;483196;1173;117028;-53
2021/04/21 04:29:40;;;;;;;23.47;20.17;;;;;;;6.66;71.42;99033.02;482576;1174;116858;-52
2021/04/21 04:39:44;;;;;;;27.33;19.47;;;;;;;7.50;70.82;99041.21;483253;1174;117105;-55
2021/04/21 04:49:52;;;;;;;39.15;18.75;;;;;;;8.34;69.80;99039.55;483215;1174;116354;-54
2021/04/21 04:59:58;;;;;;;;;;;;;;;9.49;68.90;99045.17;482614;1174;116159;-54
2021/04/21 05:10:06;;;;;;;17.80;13.55;;;;;;;10.73;66.79;99038.27;483531;1174;102599;-52
2021/04/21 05:20:46;;;;;;;15.17;11.97;;;;;;;11.24;65.07;99045.95;483017;1174;117263;-54
2021/04/21 05:31:28;;;;;;;17.07;12.23;;;;;;;18.82;59.15;99032.20;466175;1174;116439;-51
2021/04/21 05:42:10;;;;;;;18.67;12.10;;;;;;;22.87;49.72;99034.66;482568;1174;118510;-57
2021/04/21 05:52:34;;;;;;;13.63;12.23;;;;;;;24.95;45.13;99036.72;483341;1174;116145;-54
2021/04/21 06:02:39;;;;;;;21.40;13.37;;;;;;;25.55;42.13;99022.42;482624;1174;116554;-56
2021/04/21 06:12:44;;;;;;;12.93;10.80;;;;;;;27.96;38.33;99023.62;483262;1174;116434;-57
2021/04/21 06:22:59;;;;;;;17.23;10.97;;;;;;;32.42;33.85;99018.59;483268;1174;117664;-57
2021/04/21 06:33:04;;;;;;;17.95;9.43;;;;;;;35.07;29.43;99020.55;482644;1174;116303;-56
2021/04/21 06:43:08;;;;;;;21.10;9.40;;;;;;;37.73;25.97;99017.69;483264;1174;116921;-56
2021/04/21 06:53:13;;;;;;;14.70;10.10;;;;;;;38.85;23.22;99015.52;483123;1174;115708;-57
2021/04/21 07:03:18;;;;;;;12.80;9.00;;;;;;;39.90;21.67;99012.42;482691;1173;115758;-57
2021/04/21 07:13:25;;;;;;;10.13;8.17;;;;;;;40.41;20.74;99002.20;483172;1174;116493;-58
2021/04/21 07:23:30;;;;;;;12.95;7.55;;;;;;;36.78;19.97;99001.72;482537;1174;116464;-58
2021/04/21 07:33:34;;;;;;;10.60;7.90;;;;;;;36.12;20.88;98997.26;483225;1174;117352;-58
2021/04/21 07:43:40;;;;;;;7.58;6.88;;;;;;;33.23;20.01;99006.98;483269;1174;116123;-62
2021/04/21 07:53:46;;;;;;;18.03;9.37;;;;;;;31.11;21.65;99002.80;482672;1174;116239;-59
2021/04/21 08:03:50;;;;;;;9.70;6.37;;;;;;;28.55;22.05;99006.04;483290;1174;116278;-59
2021/04/21 08:13:54;;;;;;;7.00;6.30;;;;;;;32.36;22.12;99006.02;483323;1174;115934;-57
2021/04/21 08:24:00;;;;;;;8.95;6.50;;;;;;;29.53;22.71;99007.55;482554;1173;116658;-58
2021/04/21 08:34:06;;;;;;;7.78;5.13;;;;;;;25.91;24.18;99006.77;483269;1174;116726;-58
2021/04/21 08:44:11;;;;;;;8.90;6.15;;;;;;;25.76;25.34;99004.38;483273;1173;115412;-65
2021/04/21 08:54:16;;;;;;;12.10;6.30;;;;;;;25.13;26.41;99013.77;482556;1174;116053;-60
2021/04/21 09:04:19;;;;;;;9.13;5.93;;;;;;;23.68;26.73;99015.69;483292;1174;116718;-64
2021/04/21 09:14:25;;;;;;;11.47;5.80;;;;;;;22.53;27.94;99020.13;482600;1174;116492;-64
2021/04/21 09:24:29;;;;;;;8.70;5.03;;;;;;;21.90;29.03;99016.11;483275;1174;116737;-60
2021/04/21 09:34:33;;;;;;;9.57;5.90;;;;;;;20.84;30.22;99004.50;482007;1174;169369;-60
2021/04/21 09:44:47;;;;;;;9.05;5.45;;;;;;;20.34;31.18;99000.52;482465;1174;116783;-61
2021/04/21 09:54:52;;;;;;;20.10;8.10;;;;;;;19.79;32.49;99001.25;483155;1174;115882;-62
2021/04/21 10:04:58;;;;;;;10.55;6.35;;;;;;;19.44;33.51;98990.89;483194;1174;116726;-59
2021/04/21 10:15:09;;;;;;;8.60;6.15;;;;;;;18.75;33.55;98976.16;482575;1174;116140;-60
2021/04/21 10:25:15;;;;;;;8.65;6.60;;;;;;;18.65;34.13;98962.22;483212;1174;116286;-58
2021/04/21 10:35:20;;;;;;;12.83;6.50;;;;;;;18.69;33.95;98954.72;483265;1174;116260;-59
2021/04/21 10:45:26;;;;;;;9.55;5.95;;;;;;;18.41;33.66;98955.05;479637;1174;115881;-59
2021/04/21 10:55:39;;;;;;;9.70;5.67;;;;;;;18.44;33.24;98936.11;475018;1174;116870;-59
2021/04/21 11:05:52;;;;;;;6.57;4.83;;;;;;;18.43;32.99;98939.77;482670;1174;116184;-62
2021/04/21 11:15:55;;;;;;;11.65;5.90;;;;;;;18.38;32.74;98923.50;483361;1174;116173;-62
2021/04/21 11:26:32;;;;;;;6.40;4.53;;;;;;;18.30;32.82;98926.98;483227;1174;116188;-60
2021/04/21 11:36:40;;;;;;;9.07;5.20;;;;;;;18.22;32.34;98917.16;483279;1174;116276;-58
2021/04/21 11:47:02;;;;;;;7.80;4.85;;;;;;;17.95;32.53;98920.90;483270;1174;115377;-60
2021/04/21 11:57:07;;;;;;;10.15;6.55;;;;;;;17.36;32.41;98918.05;482589;1174;116275;-60
2021/04/21 12:07:11;;;;;;;14.43;6.33;;;;;;;16.73;33.09;98927.09;483188;1174;115808;-64
2021/04/21 12:17:15;;;;;;;6.25;5.25;;;;;;;16.86;33.89;98919.59;478169;1174;115637;-62
2021/04/21 12:27:29;;;;;;;10.15;5.90;;;;;;;16.43;34.05;98911.47;468996;1173;116488;-66
2021/04/21 12:37:32;;;;;;;12.20;6.30;;;;;;;16.66;34.28;98906.53;470990;1174;115926;-61
2021/04/21 12:47:36;;;;;;;10.85;6.30;;;;;;;16.65;32.62;98910.16;467989;1174;116411;-60
2021/04/21 12:57:49;;;;;;;8.35;5.45;;;;;;;16.64;32.53;98892.60;467650;1174;116227;-59
2021/04/21 13:07:55;;;;;;;11.13;4.80;;;;;;;16.77;32.50;98886.88;466708;1170;116789;-59
2021/04/21 13:17:59;;;;;;;7.80;4.45;;;;;;;16.55;32.54;98895.33;467392;1173;116045;-58
2021/04/21 13:28:12;;;;;;;7.20;4.40;;;;;;;16.35;31.97;98890.23;468222;1174;115822;-63
2021/04/21 13:38:16;;;;;;;4.00;3.60;;;;;;;16.38;31.74;98876.67;467149;1174;116481;-63
2021/04/21 13:48:20;;;;;;;10.57;5.67;;;;;;;16.42;32.01;98875.36;467796;1174;116104;-62
2021/04/21 13:58:25;;;;;;;9.80;4.90;;;;;;;16.36;31.36;98881.30;467398;1174;115438;-60
2021/04/21 14:08:28;;;;;;;6.25;4.63;;;;;;;16.24;31.59;98870.09;468935;1174;115845;-60
2021/04/21 14:18:32;;;;;;;8.40;4.07;;;;;;;16.47;31.46;98865.16;467365;1174;116088;-64
2021/04/21 14:28:39;;;;;;;8.45;3.30;;;;;;;16.75;30.07;98872.95;468819;1174;115666;-60
2021/04/21 14:38:44;;;;;;;5.90;4.43;;;;;;;16.89;30.28;98866.25;468469;1174;115584;-61
2021/04/21 14:48:49;;;;;;;9.65;4.20;;;;;;;16.99;29.74;98876.73;468018;1174;116696;-64
2021/04/21 14:58:53;;;;;;;5.53;4.20;;;;;;;16.61;30.07;98871.69;468678;1173;117361;-60
2021/04/21 15:08:58;;;;;;;5.20;4.55;;;;;;;16.25;31.06;98867.30;467091;1174;116014;-61
2021/04/21 15:19:04;;;;;;;7.65;4.45;;;;;;;15.84;32.34;98877.47;442935;1174;20002008;-60
2021/04/21 15:29:09;;;;;;;11.90;5.20;;;;;;;15.55;33.07;98881.97;466948;1174;116305;-63
2021/04/21 15:39:15;;;;;;;11.10;5.75;;;;;;;15.30;33.40;98882.66;467376;1174;115692;-61
2021/04/21 15:49:20;;;;;;;9.05;5.75;;;;;;;15.29;34.06;98876.52;467053;1174;116134;-61
2021/04/21 15:59:24;;;;;;;8.90;5.73;;;;;;;15.29;33.61;98873.06;467540;1174;116253;-60
2021/04/21 16:09:28;;;;;;;8.77;6.53;;;;;;;15.10;33.85;98875.65;466660;1174;115931;-60
2021/04/21 16:19:32;;;;;;;9.20;6.00;;;;;;;14.88;34.45;98882.11;468778;1174;116253;-60
2021/04/21 16:29:36;;;;;;;9.33;6.10;;;;;;;14.70;34.89;98871.41;467624;1174;116190;-64
2021/04/21 16:40:29;;;;;;;28.00;8.10;;;;;;;14.45;35.39;98881.61;468693;1174;115973;-64
2021/04/21 16:50:33;;;;;;;61.65;14.30;;;;;;;14.10;36.28;98889.14;466799;1174;116762;-61
2021/04/21 17:00:37;;;;;;;28.00;8.90;;;;;;;14.19;36.54;98895.39;481615;1174;116861;-60
2021/04/21 17:10:43;;;;;;;24.70;8.90;;;;;;;13.88;37.25;98900.77;483355;1173;117567;-61
2021/04/21 17:20:47;;;;;;;32.50;11.05;;;;;;;13.62;38.35;98914.48;483329;1174;115902;-63
2021/04/21 17:30:51;;;;;;;71.60;14.87;;;;;;;13.27;39.09;98926.26;474204;1174;116502;-58
2021/04/21 17:40:55;;;;;;;51.35;12.05;;;;;;;12.95;40.01;98925.42;459205;1174;10112988;-63
2021/04/21 17:51:00;;;;;;;27.63;10.27;;;;;;;12.45;40.94;98936.58;467691;1174;116976;-63
2021/04/21 18:01:04;;;;;;;31.80;10.65;;;;;;;11.95;42.04;98937.08;466965;1174;116216;-63
2021/04/21 18:11:09;;;;;;;20.70;10.65;;;;;;;11.51;42.83;98939.66;467218;1174;117375;-63
2021/04/21 18:21:13;;;;;;;21.57;10.07;;;;;;;11.06;43.69;98936.06;467504;1174;116174;-62
2021/04/21 18:31:18;;;;;;;22.67;11.30;;;;;;;10.70;44.21;98948.41;467375;1174;116270;-63
2021/04/21 18:41:22;;;;;;;19.60;11.43;;;;;;;10.30;44.82;98960.86;467893;1174;116537;-61
2021/04/21 18:51:26;;;;;;;21.00;11.83;;;;;;;10.06;45.72;98973.98;467249;1174;117141;-61
2021/04/21 19:01:29;;;;;;;20.47;11.93;;;;;;;9.89;46.35;98972.58;467422;1174;117005;-65
2021/04/21 19:11:35;;;;;;;23.23;13.70;;;;;;;9.60;46.97;98978.08;467478;1174;116128;-61
2021/04/21 19:21:41;;;;;;;45.85;22.75;;;;;;;9.25;47.56;98982.20;467331;1174;116853;-62
2021/04/21 19:31:45;;;;;;;51.55;22.75;;;;;;;8.92;48.85;98983.55;468409;1174;116261;-63
2021/04/21 19:41:49;;;;;;;36.80;22.20;;;;;;;8.61;49.33;98986.42;468448;1174;115832;-60
2021/04/21 19:51:53;;;;;;;39.60;24.40;;;;;;;8.32;50.80;98991.72;467528;1173;118152;-60
2021/04/21 20:02:00;;;;;;;58.43;27.10;;;;;;;8.06;52.26;98996.84;460334;1174;10002082;-61
2021/04/21 20:12:06;;;;;;;70.90;45.90;;;;;;;7.88;52.43;98995.38;483204;1175;116546;-64
2021/04/21 20:22:10;;;;;;;80.80;49.80;;;;;;;7.70;53.35;98995.60;472433;1174;116347;-64
2021/04/21 20:32:14;;;;;;;77.50;48.50;;;;;;;7.66;53.70;98994.09;470558;1174;115867;-70
2021/04/21 20:42:18;;;;;;;74.30;48.30;;;;;;;7.70;55.15;98991.20;468283;1174;116328;-64
2021/04/21 20:52:22;;;;;;;70.50;45.87;;;;;;;7.78;55.09;98985.49;469344;1174;115532;-65
2021/04/21 21:02:26;;;;;;;61.60;39.10;;;;;;;7.85;55.69;98981.57;469940;1174;115384;-63
2021/04/21 21:12:30;;;;;;;51.60;35.30;;;;;;;8.01;54.62;98982.39;466991;1174;116167;-62
2021/04/21 21:22:34;;;;;;;68.75;42.15;;;;;;;8.10;55.27;98976.58;481643;1170;116691;-62
2021/04/21 21:32:39;;;;;;;55.83;37.73;;;;;;;8.14;55.35;98972.82;483826;1174;115778;-64
2021/04/21 21:42:43;;;;;;;56.27;37.73;;;;;;;8.08;55.99;98971.44;476511;1174;116435;-64
2021/04/21 21:52:49;;;;;;;51.10;35.17;;;;;;;8.05;56.94;98976.02;475133;1174;116773;-63
2021/04/21 22:02:53;;;;;;;45.15;30.25;;;;;;;8.08;55.79;98987.13;483487;1174;116060;-63
2021/04/21 22:12:57;;;;;;;35.90;28.73;;;;;;;8.17;56.08;98985.69;467194;1174;117169;-60
2021/04/21 22:23:04;;;;;;;22.55;17.15;;;;;;;8.28;55.50;98983.23;483178;1174;116218;-60
2021/04/21 22:33:09;;;;;;;23.10;16.55;;;;;;;8.45;55.59;98983.93;482893;1174;115595;-61
2021/04/21 22:43:13;;;;;;;25.43;18.50;;;;;;;8.57;55.25;98968.41;482772;1174;116184;-60
2021/04/21 22:53:16;;;;;;;20.00;15.00;;;;;;;8.52;55.46;98959.05;471795;1173;118051;-60
2021/04/21 23:03:22;;;;;;;22.63;13.73;;;;;;;8.59;55.50;98964.72;468490;1173;115574;-60
2021/04/21 23:13:26;;;;;;;17.63;13.90;;;;;;;8.66;55.45;98952.91;469408;1173;116915;-59
2021/04/21 23:23:30;;;;;;;15.73;12.30;;;;;;;8.71;55.43;98952.61;468356;1174;116324;-60
2021/04/21 23:33:34;;;;;;;17.90;12.70;;;;;;;8.83;54.93;98980.59;469274;1174;115409;-58
2021/04/21 23:43:38;;;;;;;16.10;11.83;;;;;;;8.95;54.42;98992.03;468996;1174;115745;-58
2021/04/21 23:53:42;;;;;;;18.10;14.43;;;;;;;8.97;54.40;98997.15;468467;1174;116327;-58
